sensor_id;sensor_type;location;lat;lon;timestamp;P1;durP1;ratioP1;P2;durP2;ratioP2
25123;SDS011;13104;51.030;4.686;2022-09-09T00:01:14;4.15;;;1.88;;
25123;SDS011;13104;51.030;4.686;2022-09-09T00:06:32;3.65;;;1.83;;
25123;SDS011;13104;51.030;4.686;2022-09-09T00:09:02;6.60;;;2.25;;
25123;SDS011;13104;51.030;4.686;2022-09-09T00:11:39;5.70;;;2.00;;
25123;SDS011;13104;51.030;4.686;2022-09-09T00:14:41;4.40;;;1.70;;
25123;SDS011;13104;51.030;4.686;2022-09-09T00:17:01;7.55;;;1.90;;
25123;SDS011;13104;51.030;4.686;2022-09-09T00:19:33;6.57;;;2.00;;
25123;SDS011;13104;51.030;4.686;2022-09-09T00:22:16;3.90;;;1.63;;
25123;SDS011;13104;51.030;4.686;2022-09-09T00:24:50;3.38;;;1.65;;
25123;SDS011;13104;51.030;4.686;2022-09-09T00:30:18;3.83;;;1.85;;
25123;SDS011;13104;51.030;4.686;2022-09-09T00:32:46;6.03;;;2.05;;
25123;SDS011;13104;51.030;4.686;2022-09-09T00:35:16;10.00;;;2.13;;
25123;SDS011;13104;51.030;4.686;2022-09-09T00:37:43;6.30;;;2.10;;
25123;SDS011;13104;51.030;4.686;2022-09-09T00:40:53;5.82;;;2.13;;
25123;SDS011;13104;51.030;4.686;2022-09-09T00:43:41;4.10;;;2.17;;
25123;SDS011;13104;51.030;4.686;2022-09-09T00:48:19;8.35;;;1.80;;
25123;SDS011;13104;51.030;4.686;2022-09-09T00:53:19;7.85;;;2.30;;
25123;SDS011;13104;51.030;4.686;2022-09-09T00:58:16;3.58;;;2.03;;
25123;SDS011;13104;51.030;4.686;2022-09-09T01:03:19;8.82;;;2.28;;
25123;SDS011;13104;51.030;4.686;2022-09-09T01:10:58;5.20;;;2.40;;
25123;SDS011;13104;51.030;4.686;2022-09-09T01:13:26;8.77;;;2.30;;
25123;SDS011;13104;51.030;4.686;2022-09-09T01:15:55;6.20;;;2.25;;
25123;SDS011;13104;51.030;4.686;2022-09-09T01:18:23;7.88;;;2.42;;
25123;SDS011;13104;51.030;4.686;2022-09-09T01:23:47;6.43;;;2.17;;
25123;SDS011;13104;51.030;4.686;2022-09-09T01:26:21;5.95;;;2.35;;
25123;SDS011;13104;51.030;4.686;2022-09-09T01:28:50;9.25;;;2.33;;
25123;SDS011;13104;51.030;4.686;2022-09-09T01:31:21;6.72;;;2.20;;
25123;SDS011;13104;51.030;4.686;2022-09-09T01:33:48;6.95;;;2.03;;
25123;SDS011;13104;51.030;4.686;2022-09-09T01:36:20;10.10;;;2.58;;
25123;SDS011;13104;51.030;4.686;2022-09-09T01:38:47;10.10;;;2.55;;
25123;SDS011;13104;51.030;4.686;2022-09-09T01:41:13;8.77;;;2.35;;
25123;SDS011;13104;51.030;4.686;2022-09-09T01:43:39;9.38;;;2.25;;
25123;SDS011;13104;51.030;4.686;2022-09-09T01:46:05;8.77;;;2.45;;
25123;SDS011;13104;51.030;4.686;2022-09-09T01:48:32;8.05;;;2.58;;
25123;SDS011;13104;51.030;4.686;2022-09-09T01:50:58;8.45;;;2.45;;
25123;SDS011;13104;51.030;4.686;2022-09-09T01:53:24;8.32;;;2.13;;
25123;SDS011;13104;51.030;4.686;2022-09-09T01:55:55;7.10;;;2.35;;
25123;SDS011;13104;51.030;4.686;2022-09-09T02:00:56;7.32;;;2.55;;
25123;SDS011;13104;51.030;4.686;2022-09-09T02:03:25;8.90;;;2.60;;
25123;SDS011;13104;51.030;4.686;2022-09-09T02:08:52;10.38;;;2.17;;
25123;SDS011;13104;51.030;4.686;2022-09-09T02:11:12;8.82;;;2.67;;
25123;SDS011;13104;51.030;4.686;2022-09-09T02:13:39;9.13;;;2.42;;
25123;SDS011;13104;51.030;4.686;2022-09-09T02:18:35;7.57;;;2.30;;
25123;SDS011;13104;51.030;4.686;2022-09-09T02:21:04;9.93;;;2.58;;
25123;SDS011;13104;51.030;4.686;2022-09-09T02:23:31;9.40;;;2.72;;
25123;SDS011;13104;51.030;4.686;2022-09-09T02:25:58;8.07;;;2.50;;
25123;SDS011;13104;51.030;4.686;2022-09-09T02:28:24;8.18;;;2.70;;
25123;SDS011;13104;51.030;4.686;2022-09-09T02:30:52;6.97;;;2.88;;
25123;SDS011;13104;51.030;4.686;2022-09-09T02:33:22;10.18;;;2.63;;
25123;SDS011;13104;51.030;4.686;2022-09-09T02:35:50;8.07;;;2.60;;
25123;SDS011;13104;51.030;4.686;2022-09-09T02:38:16;8.32;;;2.80;;
25123;SDS011;13104;51.030;4.686;2022-09-09T02:40:43;8.85;;;2.58;;
25123;SDS011;13104;51.030;4.686;2022-09-09T02:43:10;12.48;;;3.03;;
25123;SDS011;13104;51.030;4.686;2022-09-09T02:45:39;10.55;;;2.95;;
25123;SDS011;13104;51.030;4.686;2022-09-09T02:53:48;8.57;;;2.60;;
25123;SDS011;13104;51.030;4.686;2022-09-09T02:56:17;8.48;;;2.47;;
25123;SDS011;13104;51.030;4.686;2022-09-09T02:58:44;7.70;;;2.75;;
25123;SDS011;13104;51.030;4.686;2022-09-09T03:01:11;8.07;;;2.45;;
25123;SDS011;13104;51.030;4.686;2022-09-09T03:03:37;11.10;;;2.58;;
25123;SDS011;13104;51.030;4.686;2022-09-09T03:06:04;10.80;;;2.85;;
25123;SDS011;13104;51.030;4.686;2022-09-09T03:08:30;9.73;;;2.45;;
25123;SDS011;13104;51.030;4.686;2022-09-09T03:10:58;15.98;;;3.17;;
25123;SDS011;13104;51.030;4.686;2022-09-09T03:13:26;10.07;;;3.22;;
25123;SDS011;13104;51.030;4.686;2022-09-09T03:15:52;8.10;;;3.10;;
25123;SDS011;13104;51.030;4.686;2022-09-09T03:18:18;10.73;;;2.60;;
25123;SDS011;13104;51.030;4.686;2022-09-09T03:20:45;5.97;;;2.47;;
25123;SDS011;13104;51.030;4.686;2022-09-09T03:23:16;6.40;;;2.55;;
25123;SDS011;13104;51.030;4.686;2022-09-09T03:25:46;10.40;;;2.60;;
25123;SDS011;13104;51.030;4.686;2022-09-09T03:28:13;14.02;;;2.78;;
25123;SDS011;13104;51.030;4.686;2022-09-09T03:30:40;9.77;;;3.08;;
25123;SDS011;13104;51.030;4.686;2022-09-09T03:33:06;12.85;;;2.80;;
25123;SDS011;13104;51.030;4.686;2022-09-09T03:35:32;9.90;;;2.92;;
25123;SDS011;13104;51.030;4.686;2022-09-09T03:37:58;12.85;;;2.92;;
25123;SDS011;13104;51.030;4.686;2022-09-09T03:40:25;15.32;;;2.63;;
25123;SDS011;13104;51.030;4.686;2022-09-09T03:42:51;9.57;;;2.60;;
25123;SDS011;13104;51.030;4.686;2022-09-09T03:45:18;14.75;;;2.50;;
25123;SDS011;13104;51.030;4.686;2022-09-09T03:47:44;12.23;;;3.00;;
25123;SDS011;13104;51.030;4.686;2022-09-09T03:50:11;12.60;;;2.90;;
25123;SDS011;13104;51.030;4.686;2022-09-09T03:52:38;14.07;;;2.60;;
25123;SDS011;13104;51.030;4.686;2022-09-09T03:55:05;14.20;;;2.92;;
25123;SDS011;13104;51.030;4.686;2022-09-09T03:57:32;21.10;;;3.30;;
25123;SDS011;13104;51.030;4.686;2022-09-09T04:00:00;10.27;;;2.53;;
25123;SDS011;13104;51.030;4.686;2022-09-09T04:02:26;11.82;;;2.60;;
25123;SDS011;13104;51.030;4.686;2022-09-09T04:04:53;12.93;;;2.88;;
25123;SDS011;13104;51.030;4.686;2022-09-09T04:07:19;10.27;;;2.85;;
25123;SDS011;13104;51.030;4.686;2022-09-09T04:09:45;12.73;;;2.72;;
25123;SDS011;13104;51.030;4.686;2022-09-09T04:12:11;18.73;;;2.70;;
25123;SDS011;13104;51.030;4.686;2022-09-09T04:14:38;12.30;;;2.63;;
25123;SDS011;13104;51.030;4.686;2022-09-09T04:17:04;10.27;;;2.60;;
25123;SDS011;13104;51.030;4.686;2022-09-09T04:19:31;14.98;;;2.90;;
25123;SDS011;13104;51.030;4.686;2022-09-09T04:21:57;13.43;;;3.10;;
25123;SDS011;13104;51.030;4.686;2022-09-09T04:24:24;15.93;;;3.00;;
25123;SDS011;13104;51.030;4.686;2022-09-09T04:26:52;12.02;;;3.10;;
25123;SDS011;13104;51.030;4.686;2022-09-09T04:29:18;9.90;;;2.97;;
25123;SDS011;13104;51.030;4.686;2022-09-09T04:31:44;16.20;;;2.97;;
25123;SDS011;13104;51.030;4.686;2022-09-09T04:34:10;17.23;;;3.00;;
25123;SDS011;13104;51.030;4.686;2022-09-09T04:36:37;12.45;;;2.90;;
25123;SDS011;13104;51.030;4.686;2022-09-09T04:39:05;15.90;;;2.83;;
25123;SDS011;13104;51.030;4.686;2022-09-09T04:41:31;15.05;;;2.97;;
25123;SDS011;13104;51.030;4.686;2022-09-09T04:43:57;14.50;;;3.13;;
25123;SDS011;13104;51.030;4.686;2022-09-09T04:46:24;18.90;;;3.17;;
25123;SDS011;13104;51.030;4.686;2022-09-09T04:48:50;12.52;;;3.38;;
25123;SDS011;13104;51.030;4.686;2022-09-09T04:51:18;20.67;;;2.92;;
25123;SDS011;13104;51.030;4.686;2022-09-09T04:53:44;15.80;;;3.08;;
25123;SDS011;13104;51.030;4.686;2022-09-09T04:56:13;11.73;;;2.97;;
25123;SDS011;13104;51.030;4.686;2022-09-09T04:58:39;15.52;;;2.97;;
25123;SDS011;13104;51.030;4.686;2022-09-09T05:01:13;11.48;;;3.10;;
25123;SDS011;13104;51.030;4.686;2022-09-09T05:03:40;11.73;;;3.03;;
25123;SDS011;13104;51.030;4.686;2022-09-09T05:06:10;17.38;;;3.00;;
25123;SDS011;13104;51.030;4.686;2022-09-09T05:08:37;14.55;;;3.00;;
25123;SDS011;13104;51.030;4.686;2022-09-09T05:11:04;16.50;;;3.30;;
25123;SDS011;13104;51.030;4.686;2022-09-09T05:13:30;13.73;;;2.65;;
25123;SDS011;13104;51.030;4.686;2022-09-09T05:15:57;15.38;;;3.08;;
25123;SDS011;13104;51.030;4.686;2022-09-09T05:18:23;17.45;;;3.25;;
25123;SDS011;13104;51.030;4.686;2022-09-09T05:20:49;16.88;;;3.55;;
25123;SDS011;13104;51.030;4.686;2022-09-09T05:23:16;14.48;;;2.83;;
25123;SDS011;13104;51.030;4.686;2022-09-09T05:25:42;15.20;;;3.60;;
25123;SDS011;13104;51.030;4.686;2022-09-09T05:28:08;19.40;;;4.03;;
25123;SDS011;13104;51.030;4.686;2022-09-09T05:30:36;15.98;;;3.33;;
25123;SDS011;13104;51.030;4.686;2022-09-09T05:33:02;18.75;;;3.53;;
25123;SDS011;13104;51.030;4.686;2022-09-09T05:35:28;16.67;;;3.10;;
25123;SDS011;13104;51.030;4.686;2022-09-09T05:37:58;15.85;;;3.67;;
25123;SDS011;13104;51.030;4.686;2022-09-09T05:40:25;14.60;;;2.97;;
25123;SDS011;13104;51.030;4.686;2022-09-09T05:42:51;22.48;;;3.40;;
25123;SDS011;13104;51.030;4.686;2022-09-09T05:45:18;11.57;;;3.25;;
25123;SDS011;13104;51.030;4.686;2022-09-09T05:47:44;20.08;;;3.75;;
25123;SDS011;13104;51.030;4.686;2022-09-09T05:50:11;22.65;;;3.95;;
25123;SDS011;13104;51.030;4.686;2022-09-09T05:52:39;13.10;;;3.50;;
25123;SDS011;13104;51.030;4.686;2022-09-09T05:55:05;14.38;;;3.45;;
25123;SDS011;13104;51.030;4.686;2022-09-09T05:57:32;21.55;;;3.95;;
25123;SDS011;13104;51.030;4.686;2022-09-09T05:59:58;19.25;;;3.65;;
25123;SDS011;13104;51.030;4.686;2022-09-09T06:02:25;14.48;;;3.22;;
25123;SDS011;13104;51.030;4.686;2022-09-09T06:04:51;12.80;;;3.15;;
25123;SDS011;13104;51.030;4.686;2022-09-09T06:07:17;20.17;;;3.58;;
25123;SDS011;13104;51.030;4.686;2022-09-09T06:09:43;13.10;;;3.05;;
25123;SDS011;13104;51.030;4.686;2022-09-09T06:12:09;15.88;;;3.15;;
25123;SDS011;13104;51.030;4.686;2022-09-09T06:14:35;12.63;;;3.28;;
25123;SDS011;13104;51.030;4.686;2022-09-09T06:17:01;16.63;;;3.22;;
25123;SDS011;13104;51.030;4.686;2022-09-09T06:19:28;14.40;;;3.47;;
25123;SDS011;13104;51.030;4.686;2022-09-09T06:21:55;14.95;;;3.35;;
25123;SDS011;13104;51.030;4.686;2022-09-09T06:24:22;13.52;;;2.80;;
25123;SDS011;13104;51.030;4.686;2022-09-09T06:26:48;18.95;;;3.20;;
25123;SDS011;13104;51.030;4.686;2022-09-09T06:29:14;21.00;;;3.08;;
25123;SDS011;13104;51.030;4.686;2022-09-09T06:31:40;16.15;;;3.17;;
25123;SDS011;13104;51.030;4.686;2022-09-09T06:34:07;22.02;;;3.40;;
25123;SDS011;13104;51.030;4.686;2022-09-09T06:36:34;14.32;;;3.20;;
25123;SDS011;13104;51.030;4.686;2022-09-09T06:39:02;13.43;;;3.35;;
25123;SDS011;13104;51.030;4.686;2022-09-09T06:41:29;16.55;;;3.17;;
25123;SDS011;13104;51.030;4.686;2022-09-09T06:43:55;10.43;;;2.75;;
25123;SDS011;13104;51.030;4.686;2022-09-09T06:46:22;15.52;;;2.97;;
25123;SDS011;13104;51.030;4.686;2022-09-09T06:48:48;11.95;;;2.60;;
25123;SDS011;13104;51.030;4.686;2022-09-09T06:51:19;14.10;;;2.90;;
25123;SDS011;13104;51.030;4.686;2022-09-09T06:53:54;21.73;;;3.00;;
25123;SDS011;13104;51.030;4.686;2022-09-09T06:56:54;15.50;;;3.45;;
25123;SDS011;13104;51.030;4.686;2022-09-09T06:59:15;17.45;;;2.58;;
25123;SDS011;13104;51.030;4.686;2022-09-09T07:01:41;15.77;;;3.03;;
25123;SDS011;13104;51.030;4.686;2022-09-09T07:04:16;13.68;;;2.88;;
25123;SDS011;13104;51.030;4.686;2022-09-09T07:06:44;14.95;;;2.72;;
25123;SDS011;13104;51.030;4.686;2022-09-09T07:09:11;18.55;;;3.60;;
25123;SDS011;13104;51.030;4.686;2022-09-09T07:11:45;13.48;;;2.80;;
25123;SDS011;13104;51.030;4.686;2022-09-09T07:14:11;14.88;;;2.88;;
25123;SDS011;13104;51.030;4.686;2022-09-09T07:16:41;18.13;;;2.63;;
25123;SDS011;13104;51.030;4.686;2022-09-09T07:19:07;16.67;;;2.63;;
25123;SDS011;13104;51.030;4.686;2022-09-09T07:21:33;16.70;;;3.08;;
25123;SDS011;13104;51.030;4.686;2022-09-09T07:23:59;12.30;;;3.13;;
25123;SDS011;13104;51.030;4.686;2022-09-09T07:26:27;13.15;;;2.55;;
25123;SDS011;13104;51.030;4.686;2022-09-09T07:28:54;16.73;;;2.40;;
25123;SDS011;13104;51.030;4.686;2022-09-09T07:31:30;19.38;;;3.00;;
25123;SDS011;13104;51.030;4.686;2022-09-09T07:33:57;11.15;;;2.63;;
25123;SDS011;13104;51.030;4.686;2022-09-09T07:36:24;13.35;;;2.53;;
25123;SDS011;13104;51.030;4.686;2022-09-09T07:39:00;11.55;;;2.53;;
25123;SDS011;13104;51.030;4.686;2022-09-09T07:41:37;13.23;;;2.70;;
25123;SDS011;13104;51.030;4.686;2022-09-09T07:44:05;15.55;;;2.75;;
25123;SDS011;13104;51.030;4.686;2022-09-09T07:46:32;11.73;;;2.60;;
25123;SDS011;13104;51.030;4.686;2022-09-09T07:48:59;13.73;;;2.85;;
25123;SDS011;13104;51.030;4.686;2022-09-09T07:51:26;17.17;;;2.53;;
25123;SDS011;13104;51.030;4.686;2022-09-09T07:53:57;19.73;;;2.90;;
25123;SDS011;13104;51.030;4.686;2022-09-09T07:56:24;10.38;;;2.47;;
25123;SDS011;13104;51.030;4.686;2022-09-09T07:58:51;17.83;;;2.42;;
25123;SDS011;13104;51.030;4.686;2022-09-09T08:01:19;11.68;;;2.45;;
25123;SDS011;13104;51.030;4.686;2022-09-09T08:03:46;11.95;;;2.80;;
25123;SDS011;13104;51.030;4.686;2022-09-09T08:06:13;14.52;;;2.50;;
25123;SDS011;13104;51.030;4.686;2022-09-09T08:08:40;9.88;;;2.25;;
25123;SDS011;13104;51.030;4.686;2022-09-09T08:11:09;14.98;;;2.15;;
25123;SDS011;13104;51.030;4.686;2022-09-09T08:13:36;13.07;;;2.20;;
25123;SDS011;13104;51.030;4.686;2022-09-09T08:16:11;11.18;;;2.53;;
25123;SDS011;13104;51.030;4.686;2022-09-09T08:18:37;8.93;;;1.90;;
25123;SDS011;13104;51.030;4.686;2022-09-09T08:21:05;8.13;;;2.05;;
25123;SDS011;13104;51.030;4.686;2022-09-09T08:23:31;14.02;;;2.42;;
25123;SDS011;13104;51.030;4.686;2022-09-09T08:26:06;9.77;;;2.20;;
25123;SDS011;13104;51.030;4.686;2022-09-09T08:28:34;12.90;;;2.50;;
25123;SDS011;13104;51.030;4.686;2022-09-09T08:31:07;11.75;;;2.40;;
25123;SDS011;13104;51.030;4.686;2022-09-09T08:33:33;9.82;;;1.90;;
25123;SDS011;13104;51.030;4.686;2022-09-09T08:36:01;13.60;;;2.42;;
25123;SDS011;13104;51.030;4.686;2022-09-09T08:38:27;15.35;;;2.25;;
25123;SDS011;13104;51.030;4.686;2022-09-09T08:40:54;8.38;;;1.75;;
25123;SDS011;13104;51.030;4.686;2022-09-09T08:43:26;8.57;;;2.20;;
25123;SDS011;13104;51.030;4.686;2022-09-09T08:46:02;8.52;;;2.03;;
25123;SDS011;13104;51.030;4.686;2022-09-09T08:51:18;12.30;;;2.42;;
25123;SDS011;13104;51.030;4.686;2022-09-09T08:53:46;14.77;;;2.80;;
25123;SDS011;13104;51.030;4.686;2022-09-09T08:56:15;11.75;;;2.20;;
25123;SDS011;13104;51.030;4.686;2022-09-09T08:58:47;12.52;;;1.90;;
25123;SDS011;13104;51.030;4.686;2022-09-09T09:08:44;12.10;;;2.58;;
25123;SDS011;13104;51.030;4.686;2022-09-09T09:11:14;9.93;;;1.80;;
25123;SDS011;13104;51.030;4.686;2022-09-09T09:13:48;12.00;;;2.13;;
25123;SDS011;13104;51.030;4.686;2022-09-09T09:18:53;11.48;;;2.20;;
25123;SDS011;13104;51.030;4.686;2022-09-09T09:24:01;11.38;;;1.98;;
25123;SDS011;13104;51.030;4.686;2022-09-09T09:26:31;10.20;;;2.03;;
25123;SDS011;13104;51.030;4.686;2022-09-09T09:28:58;12.25;;;2.15;;
25123;SDS011;13104;51.030;4.686;2022-09-09T09:31:24;10.52;;;2.22;;
25123;SDS011;13104;51.030;4.686;2022-09-09T09:33:55;9.85;;;2.13;;
25123;SDS011;13104;51.030;4.686;2022-09-09T09:36:42;11.82;;;2.67;;
25123;SDS011;13104;51.030;4.686;2022-09-09T09:39:21;12.30;;;2.40;;
25123;SDS011;13104;51.030;4.686;2022-09-09T09:41:48;7.95;;;2.20;;
25123;SDS011;13104;51.030;4.686;2022-09-09T09:44:30;6.57;;;1.98;;
25123;SDS011;13104;51.030;4.686;2022-09-09T09:49:32;11.10;;;2.75;;
25123;SDS011;13104;51.030;4.686;2022-09-09T09:52:02;9.63;;;2.30;;
25123;SDS011;13104;51.030;4.686;2022-09-09T09:54:29;12.70;;;2.20;;
25123;SDS011;13104;51.030;4.686;2022-09-09T09:56:55;9.88;;;2.05;;
25123;SDS011;13104;51.030;4.686;2022-09-09T10:01:54;13.25;;;2.40;;
25123;SDS011;13104;51.030;4.686;2022-09-09T10:04:31;10.77;;;2.05;;
25123;SDS011;13104;51.030;4.686;2022-09-09T10:06:58;10.25;;;2.30;;
25123;SDS011;13104;51.030;4.686;2022-09-09T10:09:36;8.88;;;2.20;;
25123;SDS011;13104;51.030;4.686;2022-09-09T10:14:50;10.07;;;2.22;;
25123;SDS011;13104;51.030;4.686;2022-09-09T10:22:36;9.90;;;2.38;;
25123;SDS011;13104;51.030;4.686;2022-09-09T10:33:28;10.13;;;2.10;;
25123;SDS011;13104;51.030;4.686;2022-09-09T10:38:47;12.20;;;2.30;;
25123;SDS011;13104;51.030;4.686;2022-09-09T10:41:24;7.32;;;1.58;;
25123;SDS011;13104;51.030;4.686;2022-09-09T10:43:58;10.32;;;2.13;;
25123;SDS011;13104;51.030;4.686;2022-09-09T10:54:32;11.07;;;2.10;;
25123;SDS011;13104;51.030;4.686;2022-09-09T10:57:03;10.50;;;2.30;;
25123;SDS011;13104;51.030;4.686;2022-09-09T10:59:33;9.70;;;2.35;;
25123;SDS011;13104;51.030;4.686;2022-09-09T11:04:37;5.70;;;1.60;;
25123;SDS011;13104;51.030;4.686;2022-09-09T11:07:10;9.20;;;1.90;;
25123;SDS011;13104;51.030;4.686;2022-09-09T11:09:38;10.98;;;2.28;;
25123;SDS011;13104;51.030;4.686;2022-09-09T11:12:06;8.23;;;2.22;;
25123;SDS011;13104;51.030;4.686;2022-09-09T11:14:41;8.13;;;2.10;;
25123;SDS011;13104;51.030;4.686;2022-09-09T11:17:18;10.40;;;2.20;;
25123;SDS011;13104;51.030;4.686;2022-09-09T11:19:46;8.70;;;2.10;;
25123;SDS011;13104;51.030;4.686;2022-09-09T11:22:25;9.73;;;2.25;;
25123;SDS011;13104;51.030;4.686;2022-09-09T11:24:53;8.10;;;2.00;;
25123;SDS011;13104;51.030;4.686;2022-09-09T11:27:24;9.77;;;1.83;;
25123;SDS011;13104;51.030;4.686;2022-09-09T11:32:59;10.57;;;2.03;;
25123;SDS011;13104;51.030;4.686;2022-09-09T11:40:43;4.55;;;1.60;;
25123;SDS011;13104;51.030;4.686;2022-09-09T11:43:21;5.82;;;1.85;;
25123;SDS011;13104;51.030;4.686;2022-09-09T11:45:53;5.85;;;1.50;;
25123;SDS011;13104;51.030;4.686;2022-09-09T11:51:12;9.68;;;1.92;;
25123;SDS011;13104;51.030;4.686;2022-09-09T11:53:51;5.80;;;1.42;;
25123;SDS011;13104;51.030;4.686;2022-09-09T11:58:54;6.20;;;1.55;;
25123;SDS011;13104;51.030;4.686;2022-09-09T12:01:28;5.03;;;1.50;;
25123;SDS011;13104;51.030;4.686;2022-09-09T12:04:12;8.70;;;1.52;;
25123;SDS011;13104;51.030;4.686;2022-09-09T12:06:43;5.70;;;1.35;;
25123;SDS011;13104;51.030;4.686;2022-09-09T12:11:43;7.63;;;1.63;;
25123;SDS011;13104;51.030;4.686;2022-09-09T12:14:19;7.45;;;1.60;;
25123;SDS011;13104;51.030;4.686;2022-09-09T12:16:46;5.70;;;1.40;;
25123;SDS011;13104;51.030;4.686;2022-09-09T12:19:17;9.45;;;1.50;;
25123;SDS011;13104;51.030;4.686;2022-09-09T12:24:21;8.35;;;1.27;;
25123;SDS011;13104;51.030;4.686;2022-09-09T12:26:52;5.57;;;1.20;;
25123;SDS011;13104;51.030;4.686;2022-09-09T12:32:14;7.75;;;1.58;;
25123;SDS011;13104;51.030;4.686;2022-09-09T12:37:12;8.25;;;1.73;;
25123;SDS011;13104;51.030;4.686;2022-09-09T12:39:44;3.95;;;1.25;;
25123;SDS011;13104;51.030;4.686;2022-09-09T12:42:19;6.07;;;1.77;;
25123;SDS011;13104;51.030;4.686;2022-09-09T12:44:58;6.18;;;1.42;;
25123;SDS011;13104;51.030;4.686;2022-09-09T12:47:26;5.10;;;1.30;;
25123;SDS011;13104;51.030;4.686;2022-09-09T12:49:55;5.72;;;1.60;;
25123;SDS011;13104;51.030;4.686;2022-09-09T12:54:47;8.02;;;1.75;;
25123;SDS011;13104;51.030;4.686;2022-09-09T12:57:16;8.27;;;1.75;;
25123;SDS011;13104;51.030;4.686;2022-09-09T12:59:43;4.72;;;1.20;;
25123;SDS011;13104;51.030;4.686;2022-09-09T13:02:26;7.82;;;1.45;;
25123;SDS011;13104;51.030;4.686;2022-09-09T13:04:55;4.78;;;1.10;;
25123;SDS011;13104;51.030;4.686;2022-09-09T13:07:31;8.35;;;1.65;;
25123;SDS011;13104;51.030;4.686;2022-09-09T13:09:58;5.75;;;1.42;;
25123;SDS011;13104;51.030;4.686;2022-09-09T13:12:25;4.78;;;1.35;;
25123;SDS011;13104;51.030;4.686;2022-09-09T13:14:52;6.00;;;1.52;;
25123;SDS011;13104;51.030;4.686;2022-09-09T13:17:23;6.93;;;1.70;;
25123;SDS011;13104;51.030;4.686;2022-09-09T13:19:50;7.28;;;1.73;;
25123;SDS011;13104;51.030;4.686;2022-09-09T13:22:21;4.68;;;1.30;;
25123;SDS011;13104;51.030;4.686;2022-09-09T13:24:58;6.45;;;1.40;;
25123;SDS011;13104;51.030;4.686;2022-09-09T13:27:28;5.85;;;1.48;;
25123;SDS011;13104;51.030;4.686;2022-09-09T13:29:55;6.75;;;1.60;;
25123;SDS011;13104;51.030;4.686;2022-09-09T13:32:22;6.70;;;1.77;;
25123;SDS011;13104;51.030;4.686;2022-09-09T13:34:52;5.82;;;1.63;;
25123;SDS011;13104;51.030;4.686;2022-09-09T13:37:23;10.50;;;1.40;;
25123;SDS011;13104;51.030;4.686;2022-09-09T13:39:53;3.30;;;1.00;;
25123;SDS011;13104;51.030;4.686;2022-09-09T13:42:21;5.00;;;1.50;;
25123;SDS011;13104;51.030;4.686;2022-09-09T13:44:50;8.70;;;1.30;;
25123;SDS011;13104;51.030;4.686;2022-09-09T13:47:19;4.97;;;1.40;;
25123;SDS011;13104;51.030;4.686;2022-09-09T13:49:46;3.25;;;1.30;;
25123;SDS011;13104;51.030;4.686;2022-09-09T13:52:16;7.15;;;1.60;;
25123;SDS011;13104;51.030;4.686;2022-09-09T13:54:47;7.15;;;1.23;;
25123;SDS011;13104;51.030;4.686;2022-09-09T13:57:18;3.65;;;1.30;;
25123;SDS011;13104;51.030;4.686;2022-09-09T13:59:45;3.95;;;1.20;;
25123;SDS011;13104;51.030;4.686;2022-09-09T14:02:12;6.38;;;1.48;;
25123;SDS011;13104;51.030;4.686;2022-09-09T14:04:38;6.57;;;1.60;;
25123;SDS011;13104;51.030;4.686;2022-09-09T14:07:08;8.50;;;1.50;;
25123;SDS011;13104;51.030;4.686;2022-09-09T14:09:35;6.38;;;1.40;;
25123;SDS011;13104;51.030;4.686;2022-09-09T14:12:02;6.15;;;1.50;;
25123;SDS011;13104;51.030;4.686;2022-09-09T14:14:28;3.80;;;1.30;;
25123;SDS011;13104;51.030;4.686;2022-09-09T14:16:54;6.22;;;1.30;;
25123;SDS011;13104;51.030;4.686;2022-09-09T14:19:23;5.55;;;1.48;;
25123;SDS011;13104;51.030;4.686;2022-09-09T14:21:49;5.70;;;1.40;;
25123;SDS011;13104;51.030;4.686;2022-09-09T14:24:16;3.85;;;1.25;;
25123;SDS011;13104;51.030;4.686;2022-09-09T14:26:42;9.75;;;1.25;;
25123;SDS011;13104;51.030;4.686;2022-09-09T14:29:08;4.15;;;1.27;;
25123;SDS011;13104;51.030;4.686;2022-09-09T14:31:34;5.25;;;1.38;;
25123;SDS011;13104;51.030;4.686;2022-09-09T14:34:00;5.07;;;1.30;;
25123;SDS011;13104;51.030;4.686;2022-09-09T14:36:26;5.30;;;1.40;;
25123;SDS011;13104;51.030;4.686;2022-09-09T14:38:53;2.63;;;1.10;;
25123;SDS011;13104;51.030;4.686;2022-09-09T14:41:19;5.13;;;1.20;;
25123;SDS011;13104;51.030;4.686;2022-09-09T14:43:47;4.45;;;1.50;;
25123;SDS011;13104;51.030;4.686;2022-09-09T14:46:14;4.93;;;1.63;;
25123;SDS011;13104;51.030;4.686;2022-09-09T14:48:41;3.17;;;1.23;;
25123;SDS011;13104;51.030;4.686;2022-09-09T14:53:37;2.90;;;0.90;;
25123;SDS011;13104;51.030;4.686;2022-09-09T14:56:07;3.25;;;1.10;;
25123;SDS011;13104;51.030;4.686;2022-09-09T14:58:34;3.15;;;1.00;;
25123;SDS011;13104;51.030;4.686;2022-09-09T15:01:08;4.22;;;0.95;;
25123;SDS011;13104;51.030;4.686;2022-09-09T15:03:38;7.20;;;1.75;;
25123;SDS011;13104;51.030;4.686;2022-09-09T15:06:05;4.28;;;1.40;;
25123;SDS011;13104;51.030;4.686;2022-09-09T15:08:31;6.97;;;1.30;;
25123;SDS011;13104;51.030;4.686;2022-09-09T15:11:03;9.32;;;1.38;;
25123;SDS011;13104;51.030;4.686;2022-09-09T15:13:30;7.45;;;1.40;;
25123;SDS011;13104;51.030;4.686;2022-09-09T15:16:02;7.30;;;1.40;;
25123;SDS011;13104;51.030;4.686;2022-09-09T15:18:29;6.32;;;1.60;;
25123;SDS011;13104;51.030;4.686;2022-09-09T15:20:55;3.13;;;1.30;;
25123;SDS011;13104;51.030;4.686;2022-09-09T15:23:23;5.20;;;1.33;;
25123;SDS011;13104;51.030;4.686;2022-09-09T15:25:52;8.10;;;1.70;;
25123;SDS011;13104;51.030;4.686;2022-09-09T15:28:19;4.40;;;1.40;;
25123;SDS011;13104;51.030;4.686;2022-09-09T15:30:49;4.93;;;1.38;;
25123;SDS011;13104;51.030;4.686;2022-09-09T15:33:16;7.63;;;1.38;;
25123;SDS011;13104;51.030;4.686;2022-09-09T15:35:42;9.60;;;1.67;;
25123;SDS011;13104;51.030;4.686;2022-09-09T15:38:08;5.05;;;1.30;;
25123;SDS011;13104;51.030;4.686;2022-09-09T15:40:35;3.38;;;1.35;;
25123;SDS011;13104;51.030;4.686;2022-09-09T15:43:01;2.85;;;1.00;;
25123;SDS011;13104;51.030;4.686;2022-09-09T15:45:29;3.20;;;0.50;;
25123;SDS011;13104;51.030;4.686;2022-09-09T15:47:57;2.30;;;0.70;;
25123;SDS011;13104;51.030;4.686;2022-09-09T15:50:23;1.60;;;0.65;;
25123;SDS011;13104;51.030;4.686;2022-09-09T15:52:49;2.15;;;0.70;;
25123;SDS011;13104;51.030;4.686;2022-09-09T15:55:17;4.20;;;0.80;;
25123;SDS011;13104;51.030;4.686;2022-09-09T15:57:43;2.60;;;0.80;;
25123;SDS011;13104;51.030;4.686;2022-09-09T16:00:09;1.60;;;0.60;;
25123;SDS011;13104;51.030;4.686;2022-09-09T16:02:38;2.35;;;0.80;;
25123;SDS011;13104;51.030;4.686;2022-09-09T16:05:04;2.42;;;0.75;;
25123;SDS011;13104;51.030;4.686;2022-09-09T16:07:30;2.25;;;0.80;;
25123;SDS011;13104;51.030;4.686;2022-09-09T16:09:56;4.90;;;1.02;;
25123;SDS011;13104;51.030;4.686;2022-09-09T16:12:22;8.63;;;2.00;;
25123;SDS011;13104;51.030;4.686;2022-09-09T16:14:48;10.40;;;1.67;;
25123;SDS011;13104;51.030;4.686;2022-09-09T16:17:15;9.38;;;2.13;;
25123;SDS011;13104;51.030;4.686;2022-09-09T16:19:41;11.60;;;2.92;;
25123;SDS011;13104;51.030;4.686;2022-09-09T16:22:07;4.13;;;1.40;;
25123;SDS011;13104;51.030;4.686;2022-09-09T16:24:34;5.07;;;1.27;;
25123;SDS011;13104;51.030;4.686;2022-09-09T16:27:00;6.43;;;2.25;;
25123;SDS011;13104;51.030;4.686;2022-09-09T16:29:26;5.20;;;2.53;;
25123;SDS011;13104;51.030;4.686;2022-09-09T16:31:53;8.57;;;2.45;;
25123;SDS011;13104;51.030;4.686;2022-09-09T16:34:20;6.22;;;2.00;;
25123;SDS011;13104;51.030;4.686;2022-09-09T16:36:46;5.15;;;2.20;;
25123;SDS011;13104;51.030;4.686;2022-09-09T16:39:14;5.03;;;2.10;;
25123;SDS011;13104;51.030;4.686;2022-09-09T16:41:41;20.33;;;9.05;;
25123;SDS011;13104;51.030;4.686;2022-09-09T16:44:09;9.48;;;5.05;;
25123;SDS011;13104;51.030;4.686;2022-09-09T16:46:39;10.20;;;4.30;;